PAFA/FAI METAR and TAF weather

Enter ICAO airport designator
Station Type Date Time Source
PAFA METAR 2021/09/20 03:53 UTC NOAA

PAFA 200353Z 34003KT 10SM BKN080 BKN100 BKN180 08/01 A2955 RMK AO2 SLP013 T00780011


Station Type Date Time Source
PAFA Decoded METAR 2021/09/20 03:53 UTC NOAA

Fairbanks, Fairbanks International Airport, AK, United States (PAFA) 64-48-14N 147-52-34W 140M
Sep 19, 2021 - 11:53 PM EDT / 2021.09.20 0353 UTC
Wind: from the NNW (340 degrees) at 3 MPH (3 KT):0
Visibility: 10 mile(s):0
Sky conditions: mostly cloudy
Temperature: 46.0 F (7.8 C)
Dew Point: 34.0 F (1.1 C)
Relative Humidity: 62%
Pressure (altimeter): 29.55 in. Hg (1000 hPa)
ob: PAFA 200353Z 34003KT 10SM BKN080 BKN100 BKN180 08/01 A2955 RMK AO2 SLP013 T00780011
cycle: 4

Station Type Date Time Source
PAFA TAF 2021/09/20 00:03 UTC NOAA

TAF TAF PAFA 192343Z 2000/2106 10005KT P6SM FEW060 SCT100
FM200800 25005KT P6SM VCSH SCT025 OVC060
FM201200 28008KT 5SM -RASN BR OVC025
FM201400 26010KT 2SM -SN BR OVC015
FM202000 27006KT P6SM SCT015 BKN035

Example: see airport list